DW4448 Weather Reports


Display with metric or nautical units.
time (UTC)temp
F
wind
direction
speed
MPH
gust
MPH
rain 1hr
in
rain 24hr
in
rain mn
in
humidity
%
barometer
mb
20230207081010 27 210 6.0 6.0 0.00 0.00 0.00 67 1019.6
20230207075011 28 220 5.0 5.0 0.00 0.00 0.00 71 1020.0
20230207074011 28 200 5.0 5.0 0.00 0.00 0.00 67 1020.0
20230207073010 29 200 5.0 5.0 0.00 0.00 0.00 67 1019.6
20230207072011 30 0 0.0 0.0 0.00 0.00 0.00 71 1019.6
20230207071011 30 0 0.0 0.0 0.00 0.00 0.00 71 1019.6
20230207070010 30 0 0.0 0.0 0.00 0.00 0.00 67 1019.6
20230207065010 30 0 0.0 0.0 0.00 0.00 0.00 67 1019.6
20230207064010 31 0 0.0 0.0 0.00 0.00 0.00 64 1019.6
20230207063010 31 0 0.0 0.0 0.00 0.00 0.00 64 1019.6
20230207062010 31 0 0.0 4.0 0.00 0.00 0.00 66 1019.6
20230207061010 31 190 4.0 4.0 0.00 0.00 0.00 67 1019.3
20230207060010 31 190 4.0 4.0 0.00 0.00 0.00 67 1019.3
20230207055011 30 190 4.0 4.0 0.00 0.00 0.00 67 1019.3
20230207054010 30 0 0.0 0.0 0.00 0.00 0.00 64 1019.3
20230207053010 30 0 0.0 0.0 0.00 0.00 0.00 64 1019.3
20230207052010 30 0 0.0 0.0 0.00 0.00 0.00 64 1019.3
20230207051010 31 0 0.0 6.0 0.00 0.00 0.00 63 1019.0
20230207045010 32 230 6.0 6.0 0.00 0.00 0.00 61 1019.0
20230207044010 32 230 6.0 6.0 0.00 0.00 0.00 61 1019.0
20230207043010 33 210 5.0 6.0 0.00 0.00 0.00 62 1019.0
20230207042010 33 210 6.0 6.0 0.00 0.00 0.00 57 1018.6
20230207041010 33 210 6.0 6.0 0.00 0.00 0.00 57 1018.6
20230207040010 34 230 4.0 4.0 0.00 0.00 0.00 56 1018.6
20230207035009 34 230 4.0 4.0 0.00 0.00 0.00 56 1018.3
20230207034010 34 0 0.0 0.0 0.00 0.00 0.00 53 1018.3
20230207033010 34 0 0.0 0.0 0.00 0.00 0.00 53 1018.3
20230207030010 35 130 4.0 4.0 0.00 0.00 0.00 52 1017.9
20230207025009 36 130 4.0 4.0 0.00 0.00 0.00 52 1017.6
20230207024010 36 90 4.0 4.0 0.00 0.00 0.00 42 1017.6
20230207023010 36 90 4.0 4.0 0.00 0.00 0.00 42 1017.6
20230207021010 37 0 0.0 7.0 0.00 0.00 0.00 39 1017.6
20230207020010 37 280 7.0 7.0 0.00 0.00 0.00 43 1017.6
20230207015009 37 280 7.0 7.0 0.00 0.00 0.00 43 1017.6
20230207014010 37 280 7.0 16.0 0.00 0.00 0.00 43 1017.3
20230207011010 38 290 5.0 7.0 0.00 0.00 0.00 44 1016.9
20230207010010 38 320 7.0 7.0 0.00 0.00 0.00 39 1016.6
20230207005010 38 320 7.0 7.0 0.00 0.00 0.00 39 1016.6
20230207004010 38 10 6.0 7.0 0.00 0.00 0.00 41 1016.3
20230207003010 39 50 7.0 7.0 0.00 0.00 0.00 39 1016.3
20230207002010 39 50 7.0 7.0 0.00 0.00 0.00 39 1015.9
20230207001010 39 50 7.0 8.0 0.00 0.00 0.00 39 1015.9
20230206235009 40 30 8.0 8.0 0.00 0.00 0.00 34 1015.2
20230206234010 40 40 8.0 8.0 0.00 0.00 0.00 35 1014.9
20230206233009 41 40 8.0 8.0 0.00 0.00 0.00 35 1014.9
20230206232010 41 10 7.0 7.0 0.00 0.00 0.00 32 1014.6
20230206231010 42 10 7.0 9.0 0.00 0.00 0.00 32 1014.2
20230206230009 42 50 9.0 9.0 0.00 0.00 0.00 37 1014.2
20230206225009 42 50 9.0 17.0 0.00 0.00 0.00 37 1014.2
20230206224009 42 30 10.0 17.0 0.00 0.00 0.00 36 1013.9
20230206222009 41 50 9.0 9.0 0.00 0.00 0.00 34 1013.9
20230206221009 41 50 9.0 23.0 0.00 0.00 0.00 34 1013.5
20230206220010 41 50 13.0 23.0 0.00 0.00 0.00 36 1013.2
20230206215009 41 50 13.0 23.0 0.00 0.00 0.00 36 1013.2
20230206214009 41 40 10.0 20.0 0.00 0.00 0.00 31 1012.9
20230206212009 40 20 15.0 22.0 0.00 0.00 0.00 30 1012.9
20230206205009 41 40 8.0 16.0 0.00 0.00 0.00 32 1012.2
20230206203009 42 50 12.0 12.0 0.00 0.00 0.00 31 1011.5
20230206201010 43 70 5.0 5.0 0.00 0.00 0.00 29 1011.5
20230206200009 44 70 5.0 5.0 0.00 0.00 0.00 26 1011.5
20230206195009 45 70 5.0 5.0 0.00 0.00 0.00 26 1011.5
20230206194010 45 80 4.0 6.0 0.00 0.00 0.00 33 1011.2
20230206192009 44 70 6.0 6.0 0.00 0.00 0.00 31 1011.2
20230206191010 43 70 6.0 7.0 0.00 0.00 0.00 31 1011.2
20230206190009 42 60 7.0 7.0 0.00 0.00 0.00 33 1011.5
20230206185010 42 60 7.0 7.0 0.00 0.00 0.00 33 1011.5
20230206184009 42 50 6.0 6.0 0.00 0.00 0.00 33 1011.5
20230206183009 41 50 6.0 9.0 0.00 0.00 0.00 33 1011.2
20230206182009 40 70 9.0 9.0 0.00 0.00 0.00 44 1011.5
20230206181009 40 70 9.0 9.0 0.00 0.00 0.00 44 1011.5
20230206175010 39 300 12.0 12.0 0.00 0.00 0.00 22 1011.2
20230206171010 41 280 13.0 17.0 0.00 0.00 0.00 24 1010.5
20230206170009 40 250 10.0 16.0 0.00 0.00 0.00 26 1010.2
20230206165009 39 250 10.0 16.0 0.00 0.00 0.00 26 1009.8
20230206164010 39 170 4.0 4.0 0.00 0.62 0.00 55 1009.8
20230206163009 39 170 4.0 4.0 0.00 0.62 0.00 55 1009.8
20230206162010 39 150 4.0 4.0 0.00 0.62 0.00 52 1009.5
20230206161009 39 150 4.0 7.0 0.00 0.62 0.00 52 1009.5
20230206160009 38 120 7.0 7.0 0.00 0.62 0.00 59 1009.5
20230206155009 37 120 7.0 12.0 0.00 0.62 0.00 59 1009.5
20230206154009 37 140 12.0 12.0 0.00 0.62 0.00 59 1009.1
20230206152010 34 140 13.0 18.0 0.00 0.62 0.00 56 1009.1
20230206150009 33 0 0.0 0.0 0.00 0.62 0.00 63 1009.1
20230206145010 33 0 0.0 6.0 0.00 0.62 0.00 63 1008.8
20230206144009 32 110 6.0 6.0 0.00 0.62 0.00 66 1008.8
20230206143009 32 210 6.0 6.0 0.00 0.62 0.00 62 1008.5
20230206142109 32 210 6.0 6.0 0.00 0.62 0.00 62 1008.5
20230206140109 31 150 9.0 9.0 0.00 0.62 0.00 64 1008.1
20230206135009 31 150 9.0 9.0 0.00 0.62 0.00 64 1008.1
20230206133009 31 140 5.0 10.0 0.00 0.62 0.00 65 1008.1
20230206131009 30 150 10.0 10.0 0.00 0.62 0.00 66 1007.5
20230206125009 31 140 8.0 8.0 0.00 0.62 0.00 69 1007.5
20230206124009 30 140 5.0 5.0 0.00 0.62 0.00 69 1007.1
20230206123009 30 140 5.0 5.0 0.00 0.62 0.00 69 1007.1
20230206115009 29 0 0.0 6.0 0.00 0.62 0.00 69 1007.1
20230206113009 29 20 6.0 6.0 0.00 0.62 0.00 67 1007.1
20230206112010 29 0 0.0 0.0 0.00 0.62 0.00 71 1006.8
20230206111009 29 0 0.0 0.0 0.00 0.62 0.00 71 1006.8
20230206110009 28 0 0.0 8.0 0.00 0.62 0.00 71 1006.4
20230206105009 28 20 8.0 8.0 0.00 0.62 0.00 83 1006.4
20230206104009 29 0 0.0 0.0 0.00 0.62 0.00 85 1006.4
20230206103009 30 0 0.0 0.0 0.00 0.62 0.00 85 1006.4
20230206101009 34 0 0.0 0.0 0.00 0.62 0.00 81 1005.8
20230206100009 33 0 0.0 0.0 0.00 0.62 0.00 77 1005.4
20230206095009 33 0 0.0 0.0 0.00 0.62 0.00 77 1005.4
20230206094009 32 0 0.0 0.0 0.00 0.62 0.00 76 1005.4
20230206093010 32 0 0.0 0.0 0.00 0.62 0.00 76 1005.4
20230206092009 32 0 0.0 0.0 0.00 0.62 0.00 78 1005.8
20230206091010 32 0 0.0 0.0 0.00 0.62 0.00 78 1005.8
20230206090009 32 0 0.0 0.0 0.00 0.62 0.00 76 1005.8
20230206085109 32 0 0.0 0.0 0.00 0.62 0.00 80 1006.1
20230206084009 32 0 0.0 0.0 0.00 0.62 0.00 80 1006.1
20230206083109 31 0 0.0 0.0 0.00 0.62 0.00 80 1006.1
20230206082009 31 0 0.0 0.0 0.00 0.62 0.00 83 1006.1